sensor_id;sensor_type;location;lat;lon;timestamp;P1;durP1;ratioP1;P2;durP2;ratioP2
41903;SDS011;27586;51.124;4.182;2024-01-11T00:00:46;20.40;;;14.00;;
41903;SDS011;27586;51.124;4.182;2024-01-11T00:03:12;24.93;;;14.20;;
41903;SDS011;27586;51.124;4.182;2024-01-11T00:05:37;21.17;;;13.10;;
41903;SDS011;27586;51.124;4.182;2024-01-11T00:08:04;21.73;;;14.10;;
41903;SDS011;27586;51.124;4.182;2024-01-11T00:10:29;19.27;;;12.50;;
41903;SDS011;27586;51.124;4.182;2024-01-11T00:12:55;19.60;;;13.30;;
41903;SDS011;27586;51.124;4.182;2024-01-11T00:15:21;19.13;;;12.70;;
41903;SDS011;27586;51.124;4.182;2024-01-11T00:17:46;21.07;;;14.03;;
41903;SDS011;27586;51.124;4.182;2024-01-11T00:20:12;20.53;;;13.13;;
41903;SDS011;27586;51.124;4.182;2024-01-11T00:22:37;18.80;;;12.37;;
41903;SDS011;27586;51.124;4.182;2024-01-11T00:25:03;24.17;;;13.60;;
41903;SDS011;27586;51.124;4.182;2024-01-11T00:27:29;21.37;;;13.10;;
41903;SDS011;27586;51.124;4.182;2024-01-11T00:29:55;20.90;;;13.67;;
41903;SDS011;27586;51.124;4.182;2024-01-11T00:32:21;18.73;;;12.70;;
41903;SDS011;27586;51.124;4.182;2024-01-11T00:34:47;19.97;;;12.60;;
41903;SDS011;27586;51.124;4.182;2024-01-11T00:37:12;20.07;;;12.20;;
41903;SDS011;27586;51.124;4.182;2024-01-11T00:39:38;23.00;;;14.13;;
41903;SDS011;27586;51.124;4.182;2024-01-11T00:42:04;22.37;;;13.30;;
41903;SDS011;27586;51.124;4.182;2024-01-11T00:44:29;19.30;;;12.87;;
41903;SDS011;27586;51.124;4.182;2024-01-11T00:46:55;21.90;;;12.53;;
41903;SDS011;27586;51.124;4.182;2024-01-11T00:49:21;18.30;;;12.70;;
41903;SDS011;27586;51.124;4.182;2024-01-11T00:51:47;20.90;;;13.37;;
41903;SDS011;27586;51.124;4.182;2024-01-11T00:54:12;21.67;;;12.93;;
41903;SDS011;27586;51.124;4.182;2024-01-11T00:56:38;19.83;;;13.10;;
41903;SDS011;27586;51.124;4.182;2024-01-11T00:59:04;22.50;;;12.57;;
41903;SDS011;27586;51.124;4.182;2024-01-11T01:01:29;21.43;;;12.53;;
41903;SDS011;27586;51.124;4.182;2024-01-11T01:03:55;21.03;;;12.70;;
41903;SDS011;27586;51.124;4.182;2024-01-11T01:06:21;19.97;;;13.87;;
41903;SDS011;27586;51.124;4.182;2024-01-11T01:08:47;21.07;;;12.93;;
41903;SDS011;27586;51.124;4.182;2024-01-11T01:11:12;21.33;;;12.57;;
41903;SDS011;27586;51.124;4.182;2024-01-11T01:13:38;23.07;;;13.90;;
41903;SDS011;27586;51.124;4.182;2024-01-11T01:16:04;20.53;;;13.13;;
41903;SDS011;27586;51.124;4.182;2024-01-11T01:18:30;20.07;;;13.77;;
41903;SDS011;27586;51.124;4.182;2024-01-11T01:20:55;21.97;;;14.07;;
41903;SDS011;27586;51.124;4.182;2024-01-11T01:23:21;20.60;;;12.87;;
41903;SDS011;27586;51.124;4.182;2024-01-11T01:25:47;21.20;;;14.27;;
41903;SDS011;27586;51.124;4.182;2024-01-11T01:28:13;21.97;;;12.90;;
41903;SDS011;27586;51.124;4.182;2024-01-11T01:30:39;22.37;;;13.77;;
41903;SDS011;27586;51.124;4.182;2024-01-11T01:33:04;24.47;;;13.70;;
41903;SDS011;27586;51.124;4.182;2024-01-11T01:35:30;21.30;;;13.80;;
41903;SDS011;27586;51.124;4.182;2024-01-11T01:37:56;21.47;;;14.00;;
41903;SDS011;27586;51.124;4.182;2024-01-11T01:40:21;21.60;;;13.43;;
41903;SDS011;27586;51.124;4.182;2024-01-11T01:42:48;21.67;;;14.37;;
41903;SDS011;27586;51.124;4.182;2024-01-11T01:45:14;18.97;;;12.90;;
41903;SDS011;27586;51.124;4.182;2024-01-11T01:47:42;23.90;;;14.40;;
41903;SDS011;27586;51.124;4.182;2024-01-11T01:50:09;20.40;;;13.07;;
41903;SDS011;27586;51.124;4.182;2024-01-11T01:52:36;21.17;;;14.27;;
41903;SDS011;27586;51.124;4.182;2024-01-11T01:55:04;22.57;;;14.87;;
41903;SDS011;27586;51.124;4.182;2024-01-11T01:57:32;24.10;;;15.53;;
41903;SDS011;27586;51.124;4.182;2024-01-11T01:59:59;21.23;;;14.07;;
41903;SDS011;27586;51.124;4.182;2024-01-11T02:02:25;19.80;;;14.13;;
41903;SDS011;27586;51.124;4.182;2024-01-11T02:04:52;19.80;;;13.10;;
41903;SDS011;27586;51.124;4.182;2024-01-11T02:07:18;21.23;;;13.60;;
41903;SDS011;27586;51.124;4.182;2024-01-11T02:09:44;26.07;;;15.63;;
41903;SDS011;27586;51.124;4.182;2024-01-11T02:12:10;33.00;;;18.60;;
41903;SDS011;27586;51.124;4.182;2024-01-11T02:14:39;33.47;;;18.50;;
41903;SDS011;27586;51.124;4.182;2024-01-11T02:17:05;28.30;;;18.03;;
41903;SDS011;27586;51.124;4.182;2024-01-11T02:19:31;23.80;;;15.10;;
41903;SDS011;27586;51.124;4.182;2024-01-11T02:22:00;23.57;;;14.50;;
41903;SDS011;27586;51.124;4.182;2024-01-11T02:24:30;21.23;;;13.73;;
41903;SDS011;27586;51.124;4.182;2024-01-11T02:26:59;21.10;;;13.93;;
41903;SDS011;27586;51.124;4.182;2024-01-11T02:29:27;20.93;;;13.80;;
41903;SDS011;27586;51.124;4.182;2024-01-11T02:31:54;22.77;;;14.80;;
41903;SDS011;27586;51.124;4.182;2024-01-11T02:34:20;24.30;;;14.93;;
41903;SDS011;27586;51.124;4.182;2024-01-11T02:36:47;21.43;;;13.80;;
41903;SDS011;27586;51.124;4.182;2024-01-11T02:39:13;20.63;;;13.67;;
41903;SDS011;27586;51.124;4.182;2024-01-11T02:41:41;24.87;;;14.47;;
41903;SDS011;27586;51.124;4.182;2024-01-11T02:44:08;20.63;;;14.30;;
41903;SDS011;27586;51.124;4.182;2024-01-11T02:46:34;22.67;;;14.83;;
41903;SDS011;27586;51.124;4.182;2024-01-11T02:48:59;21.97;;;14.63;;
41903;SDS011;27586;51.124;4.182;2024-01-11T02:51:25;23.27;;;14.97;;
41903;SDS011;27586;51.124;4.182;2024-01-11T02:53:51;24.17;;;14.13;;
41903;SDS011;27586;51.124;4.182;2024-01-11T02:56:16;21.77;;;14.77;;
41903;SDS011;27586;51.124;4.182;2024-01-11T02:58:42;23.53;;;14.40;;
41903;SDS011;27586;51.124;4.182;2024-01-11T03:01:08;23.77;;;15.40;;
41903;SDS011;27586;51.124;4.182;2024-01-11T03:03:33;24.80;;;15.20;;
41903;SDS011;27586;51.124;4.182;2024-01-11T03:05:59;21.67;;;14.33;;
41903;SDS011;27586;51.124;4.182;2024-01-11T03:08:25;22.73;;;14.37;;
41903;SDS011;27586;51.124;4.182;2024-01-11T03:10:51;23.60;;;15.40;;
41903;SDS011;27586;51.124;4.182;2024-01-11T03:13:17;24.67;;;14.97;;
41903;SDS011;27586;51.124;4.182;2024-01-11T03:15:42;23.47;;;15.07;;
41903;SDS011;27586;51.124;4.182;2024-01-11T03:18:08;25.50;;;14.97;;
41903;SDS011;27586;51.124;4.182;2024-01-11T03:20:34;24.37;;;15.13;;
41903;SDS011;27586;51.124;4.182;2024-01-11T03:23:00;25.63;;;15.83;;
41903;SDS011;27586;51.124;4.182;2024-01-11T03:25:26;27.37;;;14.83;;
41903;SDS011;27586;51.124;4.182;2024-01-11T03:27:52;27.33;;;15.33;;
41903;SDS011;27586;51.124;4.182;2024-01-11T03:30:17;28.60;;;16.60;;
41903;SDS011;27586;51.124;4.182;2024-01-11T03:32:43;23.73;;;15.23;;
41903;SDS011;27586;51.124;4.182;2024-01-11T03:35:09;21.20;;;14.77;;
41903;SDS011;27586;51.124;4.182;2024-01-11T03:37:35;23.13;;;13.67;;
41903;SDS011;27586;51.124;4.182;2024-01-11T03:40:01;27.50;;;15.43;;
41903;SDS011;27586;51.124;4.182;2024-01-11T03:42:28;25.97;;;15.73;;
41903;SDS011;27586;51.124;4.182;2024-01-11T03:44:54;22.10;;;14.83;;
41903;SDS011;27586;51.124;4.182;2024-01-11T03:47:20;24.33;;;15.23;;
41903;SDS011;27586;51.124;4.182;2024-01-11T03:49:45;25.40;;;14.53;;
41903;SDS011;27586;51.124;4.182;2024-01-11T03:52:11;23.03;;;15.00;;
41903;SDS011;27586;51.124;4.182;2024-01-11T03:54:37;21.20;;;14.30;;
41903;SDS011;27586;51.124;4.182;2024-01-11T03:57:02;26.33;;;16.07;;
41903;SDS011;27586;51.124;4.182;2024-01-11T03:59:28;26.17;;;14.80;;
41903;SDS011;27586;51.124;4.182;2024-01-11T04:01:54;26.90;;;15.40;;
41903;SDS011;27586;51.124;4.182;2024-01-11T04:04:20;24.20;;;14.80;;
41903;SDS011;27586;51.124;4.182;2024-01-11T04:06:47;25.50;;;15.30;;
41903;SDS011;27586;51.124;4.182;2024-01-11T04:09:13;26.30;;;15.43;;
41903;SDS011;27586;51.124;4.182;2024-01-11T04:11:38;25.87;;;15.37;;
41903;SDS011;27586;51.124;4.182;2024-01-11T04:14:04;24.37;;;15.27;;
41903;SDS011;27586;51.124;4.182;2024-01-11T04:16:30;24.10;;;15.23;;
41903;SDS011;27586;51.124;4.182;2024-01-11T04:18:55;26.07;;;15.33;;
41903;SDS011;27586;51.124;4.182;2024-01-11T04:21:22;24.23;;;15.27;;
41903;SDS011;27586;51.124;4.182;2024-01-11T04:23:54;22.67;;;14.93;;
41903;SDS011;27586;51.124;4.182;2024-01-11T04:26:21;22.03;;;14.23;;
41903;SDS011;27586;51.124;4.182;2024-01-11T04:28:47;24.63;;;14.87;;
41903;SDS011;27586;51.124;4.182;2024-01-11T04:31:13;22.00;;;14.37;;
41903;SDS011;27586;51.124;4.182;2024-01-11T04:33:45;26.67;;;15.47;;
41903;SDS011;27586;51.124;4.182;2024-01-11T04:36:11;22.77;;;15.13;;
41903;SDS011;27586;51.124;4.182;2024-01-11T04:38:38;24.90;;;15.80;;
41903;SDS011;27586;51.124;4.182;2024-01-11T04:43:39;25.17;;;15.50;;
41903;SDS011;27586;51.124;4.182;2024-01-11T04:46:15;21.27;;;14.80;;
41903;SDS011;27586;51.124;4.182;2024-01-11T04:48:42;25.27;;;15.97;;
41903;SDS011;27586;51.124;4.182;2024-01-11T04:51:08;25.37;;;15.23;;
41903;SDS011;27586;51.124;4.182;2024-01-11T04:53:37;22.20;;;15.30;;
41903;SDS011;27586;51.124;4.182;2024-01-11T04:56:04;24.73;;;14.30;;
41903;SDS011;27586;51.124;4.182;2024-01-11T04:58:31;28.90;;;16.00;;
41903;SDS011;27586;51.124;4.182;2024-01-11T05:00:57;25.53;;;15.67;;
41903;SDS011;27586;51.124;4.182;2024-01-11T05:03:23;26.77;;;15.90;;
41903;SDS011;27586;51.124;4.182;2024-01-11T05:05:48;26.13;;;14.83;;
41903;SDS011;27586;51.124;4.182;2024-01-11T05:08:14;26.70;;;16.67;;
41903;SDS011;27586;51.124;4.182;2024-01-11T05:10:40;24.87;;;16.47;;
41903;SDS011;27586;51.124;4.182;2024-01-11T05:13:05;24.33;;;16.10;;
41903;SDS011;27586;51.124;4.182;2024-01-11T05:15:31;28.47;;;17.43;;
41903;SDS011;27586;51.124;4.182;2024-01-11T05:17:57;29.17;;;18.53;;
41903;SDS011;27586;51.124;4.182;2024-01-11T05:20:23;26.43;;;16.40;;
41903;SDS011;27586;51.124;4.182;2024-01-11T05:22:49;25.73;;;15.90;;
41903;SDS011;27586;51.124;4.182;2024-01-11T05:25:15;28.67;;;17.17;;
41903;SDS011;27586;51.124;4.182;2024-01-11T05:27:40;24.87;;;16.00;;
41903;SDS011;27586;51.124;4.182;2024-01-11T05:30:06;25.57;;;15.17;;
41903;SDS011;27586;51.124;4.182;2024-01-11T05:32:32;26.37;;;15.93;;
41903;SDS011;27586;51.124;4.182;2024-01-11T05:34:58;26.57;;;16.03;;
41903;SDS011;27586;51.124;4.182;2024-01-11T05:37:23;26.13;;;16.40;;
41903;SDS011;27586;51.124;4.182;2024-01-11T05:39:49;24.77;;;15.80;;
41903;SDS011;27586;51.124;4.182;2024-01-11T05:42:15;30.17;;;19.97;;
41903;SDS011;27586;51.124;4.182;2024-01-11T05:44:40;29.90;;;18.90;;
41903;SDS011;27586;51.124;4.182;2024-01-11T05:47:06;25.17;;;16.37;;
41903;SDS011;27586;51.124;4.182;2024-01-11T05:49:32;24.00;;;16.60;;
41903;SDS011;27586;51.124;4.182;2024-01-11T05:51:57;25.53;;;16.67;;
41903;SDS011;27586;51.124;4.182;2024-01-11T05:54:23;26.00;;;15.23;;
41903;SDS011;27586;51.124;4.182;2024-01-11T05:56:49;25.87;;;15.50;;
41903;SDS011;27586;51.124;4.182;2024-01-11T05:59:17;24.83;;;15.83;;
41903;SDS011;27586;51.124;4.182;2024-01-11T06:01:43;25.33;;;16.53;;
41903;SDS011;27586;51.124;4.182;2024-01-11T06:04:09;25.43;;;15.87;;
41903;SDS011;27586;51.124;4.182;2024-01-11T06:06:34;24.97;;;15.37;;
41903;SDS011;27586;51.124;4.182;2024-01-11T06:09:00;24.60;;;15.43;;
41903;SDS011;27586;51.124;4.182;2024-01-11T06:11:29;26.67;;;16.20;;
41903;SDS011;27586;51.124;4.182;2024-01-11T06:13:55;27.33;;;15.83;;
41903;SDS011;27586;51.124;4.182;2024-01-11T06:16:20;24.57;;;15.13;;
41903;SDS011;27586;51.124;4.182;2024-01-11T06:18:46;23.80;;;15.23;;
41903;SDS011;27586;51.124;4.182;2024-01-11T06:21:12;25.30;;;16.00;;
41903;SDS011;27586;51.124;4.182;2024-01-11T06:23:37;27.53;;;15.60;;
41903;SDS011;27586;51.124;4.182;2024-01-11T06:26:03;25.33;;;15.23;;
41903;SDS011;27586;51.124;4.182;2024-01-11T06:28:29;24.67;;;15.23;;
41903;SDS011;27586;51.124;4.182;2024-01-11T06:30:55;22.33;;;15.53;;
41903;SDS011;27586;51.124;4.182;2024-01-11T06:33:20;23.93;;;15.83;;
41903;SDS011;27586;51.124;4.182;2024-01-11T06:35:46;24.83;;;15.63;;
41903;SDS011;27586;51.124;4.182;2024-01-11T06:38:12;24.60;;;14.73;;
41903;SDS011;27586;51.124;4.182;2024-01-11T06:40:37;24.30;;;15.70;;
41903;SDS011;27586;51.124;4.182;2024-01-11T06:43:03;26.00;;;16.47;;
41903;SDS011;27586;51.124;4.182;2024-01-11T06:45:29;24.17;;;15.73;;
41903;SDS011;27586;51.124;4.182;2024-01-11T06:47:54;27.87;;;16.27;;
41903;SDS011;27586;51.124;4.182;2024-01-11T06:50:20;25.13;;;16.03;;
41903;SDS011;27586;51.124;4.182;2024-01-11T06:52:45;25.07;;;14.93;;
41903;SDS011;27586;51.124;4.182;2024-01-11T06:55:11;23.67;;;15.23;;
41903;SDS011;27586;51.124;4.182;2024-01-11T06:57:37;24.23;;;15.77;;
41903;SDS011;27586;51.124;4.182;2024-01-11T07:00:03;22.93;;;15.27;;
41903;SDS011;27586;51.124;4.182;2024-01-11T07:02:29;23.60;;;15.23;;
41903;SDS011;27586;51.124;4.182;2024-01-11T07:04:54;29.60;;;16.70;;
41903;SDS011;27586;51.124;4.182;2024-01-11T07:07:20;27.17;;;16.47;;
41903;SDS011;27586;51.124;4.182;2024-01-11T07:09:46;28.13;;;16.70;;
41903;SDS011;27586;51.124;4.182;2024-01-11T07:12:11;27.50;;;16.47;;
41903;SDS011;27586;51.124;4.182;2024-01-11T07:14:37;25.70;;;15.50;;
41903;SDS011;27586;51.124;4.182;2024-01-11T07:17:03;29.63;;;15.80;;
41903;SDS011;27586;51.124;4.182;2024-01-11T07:19:29;25.10;;;15.63;;
41903;SDS011;27586;51.124;4.182;2024-01-11T07:21:54;27.73;;;15.60;;
41903;SDS011;27586;51.124;4.182;2024-01-11T07:24:20;26.70;;;17.00;;
41903;SDS011;27586;51.124;4.182;2024-01-11T07:26:46;26.90;;;16.40;;
41903;SDS011;27586;51.124;4.182;2024-01-11T07:29:12;25.50;;;16.57;;
41903;SDS011;27586;51.124;4.182;2024-01-11T07:31:39;25.70;;;15.53;;
41903;SDS011;27586;51.124;4.182;2024-01-11T07:34:05;27.20;;;16.97;;
41903;SDS011;27586;51.124;4.182;2024-01-11T07:36:30;30.97;;;15.97;;
41903;SDS011;27586;51.124;4.182;2024-01-11T07:38:56;27.23;;;15.90;;
41903;SDS011;27586;51.124;4.182;2024-01-11T07:41:22;32.63;;;17.43;;
41903;SDS011;27586;51.124;4.182;2024-01-11T07:43:48;24.63;;;15.67;;
41903;SDS011;27586;51.124;4.182;2024-01-11T07:46:13;27.43;;;17.03;;
41903;SDS011;27586;51.124;4.182;2024-01-11T07:48:39;25.87;;;16.20;;
41903;SDS011;27586;51.124;4.182;2024-01-11T07:51:05;24.07;;;15.80;;
41903;SDS011;27586;51.124;4.182;2024-01-11T07:53:30;27.03;;;16.17;;
41903;SDS011;27586;51.124;4.182;2024-01-11T07:55:57;24.90;;;15.80;;
41903;SDS011;27586;51.124;4.182;2024-01-11T07:58:23;24.97;;;15.87;;
41903;SDS011;27586;51.124;4.182;2024-01-11T08:00:49;26.27;;;16.33;;
41903;SDS011;27586;51.124;4.182;2024-01-11T08:03:14;24.37;;;15.20;;
41903;SDS011;27586;51.124;4.182;2024-01-11T08:05:41;25.00;;;16.43;;
41903;SDS011;27586;51.124;4.182;2024-01-11T08:08:08;26.80;;;16.00;;
41903;SDS011;27586;51.124;4.182;2024-01-11T08:10:33;25.17;;;15.50;;
41903;SDS011;27586;51.124;4.182;2024-01-11T08:12:59;25.77;;;15.97;;
41903;SDS011;27586;51.124;4.182;2024-01-11T08:15:25;29.40;;;17.83;;
41903;SDS011;27586;51.124;4.182;2024-01-11T08:17:51;23.73;;;15.40;;
41903;SDS011;27586;51.124;4.182;2024-01-11T08:20:17;25.97;;;15.37;;
41903;SDS011;27586;51.124;4.182;2024-01-11T08:22:44;24.30;;;15.33;;
41903;SDS011;27586;51.124;4.182;2024-01-11T08:25:13;28.97;;;15.40;;
41903;SDS011;27586;51.124;4.182;2024-01-11T08:27:39;25.60;;;15.20;;
41903;SDS011;27586;51.124;4.182;2024-01-11T08:30:05;27.27;;;16.30;;
41903;SDS011;27586;51.124;4.182;2024-01-11T08:32:33;25.37;;;15.40;;
41903;SDS011;27586;51.124;4.182;2024-01-11T08:35:04;24.70;;;15.47;;
41903;SDS011;27586;51.124;4.182;2024-01-11T08:37:31;23.87;;;15.53;;
41903;SDS011;27586;51.124;4.182;2024-01-11T08:39:57;27.97;;;15.90;;
41903;SDS011;27586;51.124;4.182;2024-01-11T08:42:23;28.47;;;15.60;;
41903;SDS011;27586;51.124;4.182;2024-01-11T08:44:48;26.23;;;16.27;;
41903;SDS011;27586;51.124;4.182;2024-01-11T08:47:14;23.63;;;14.77;;
41903;SDS011;27586;51.124;4.182;2024-01-11T08:49:40;25.73;;;16.07;;
41903;SDS011;27586;51.124;4.182;2024-01-11T08:52:05;22.80;;;15.80;;
41903;SDS011;27586;51.124;4.182;2024-01-11T08:54:33;25.33;;;16.60;;
41903;SDS011;27586;51.124;4.182;2024-01-11T08:56:59;26.00;;;16.20;;
41903;SDS011;27586;51.124;4.182;2024-01-11T08:59:24;26.93;;;16.23;;
41903;SDS011;27586;51.124;4.182;2024-01-11T09:01:51;27.90;;;16.00;;
41903;SDS011;27586;51.124;4.182;2024-01-11T09:04:17;28.13;;;16.50;;
41903;SDS011;27586;51.124;4.182;2024-01-11T09:06:43;26.97;;;18.03;;
41903;SDS011;27586;51.124;4.182;2024-01-11T09:09:10;27.57;;;16.73;;
41903;SDS011;27586;51.124;4.182;2024-01-11T09:11:38;27.97;;;17.87;;
41903;SDS011;27586;51.124;4.182;2024-01-11T09:14:05;28.27;;;18.30;;
41903;SDS011;27586;51.124;4.182;2024-01-11T09:16:31;29.27;;;18.07;;
41903;SDS011;27586;51.124;4.182;2024-01-11T09:18:58;31.63;;;17.60;;
41903;SDS011;27586;51.124;4.182;2024-01-11T09:21:25;29.00;;;18.23;;
41903;SDS011;27586;51.124;4.182;2024-01-11T09:23:51;29.40;;;18.20;;
41903;SDS011;27586;51.124;4.182;2024-01-11T09:26:17;30.10;;;18.17;;
41903;SDS011;27586;51.124;4.182;2024-01-11T09:28:42;29.20;;;19.13;;
41903;SDS011;27586;51.124;4.182;2024-01-11T09:31:08;27.13;;;17.37;;
41903;SDS011;27586;51.124;4.182;2024-01-11T09:33:34;26.63;;;17.13;;
41903;SDS011;27586;51.124;4.182;2024-01-11T09:35:59;27.10;;;17.07;;
41903;SDS011;27586;51.124;4.182;2024-01-11T09:38:25;28.70;;;17.63;;
41903;SDS011;27586;51.124;4.182;2024-01-11T09:41:13;25.90;;;15.60;;
41903;SDS011;27586;51.124;4.182;2024-01-11T09:43:38;25.43;;;16.70;;
41903;SDS011;27586;51.124;4.182;2024-01-11T09:46:09;27.90;;;16.57;;
41903;SDS011;27586;51.124;4.182;2024-01-11T09:48:37;28.40;;;17.43;;
41903;SDS011;27586;51.124;4.182;2024-01-11T09:51:04;24.80;;;16.63;;
41903;SDS011;27586;51.124;4.182;2024-01-11T09:53:38;27.57;;;17.67;;
41903;SDS011;27586;51.124;4.182;2024-01-11T09:56:07;26.77;;;17.47;;
41903;SDS011;27586;51.124;4.182;2024-01-11T09:58:35;26.80;;;17.57;;
41903;SDS011;27586;51.124;4.182;2024-01-11T10:01:06;27.50;;;18.30;;
41903;SDS011;27586;51.124;4.182;2024-01-11T10:03:34;28.57;;;17.20;;
41903;SDS011;27586;51.124;4.182;2024-01-11T10:06:00;26.03;;;17.73;;
41903;SDS011;27586;51.124;4.182;2024-01-11T10:08:27;28.50;;;18.47;;
41903;SDS011;27586;51.124;4.182;2024-01-11T10:10:54;26.83;;;17.97;;
41903;SDS011;27586;51.124;4.182;2024-01-11T10:13:25;28.67;;;18.50;;
41903;SDS011;27586;51.124;4.182;2024-01-11T10:16:11;31.07;;;18.93;;
41903;SDS011;27586;51.124;4.182;2024-01-11T10:18:43;29.63;;;19.63;;
41903;SDS011;27586;51.124;4.182;2024-01-11T10:21:09;31.30;;;20.00;;
41903;SDS011;27586;51.124;4.182;2024-01-11T10:23:37;30.10;;;19.13;;
41903;SDS011;27586;51.124;4.182;2024-01-11T10:26:04;27.83;;;18.27;;
41903;SDS011;27586;51.124;4.182;2024-01-11T10:28:30;28.93;;;18.27;;
41903;SDS011;27586;51.124;4.182;2024-01-11T10:30:55;31.43;;;18.97;;
41903;SDS011;27586;51.124;4.182;2024-01-11T10:33:22;27.53;;;16.77;;
41903;SDS011;27586;51.124;4.182;2024-01-11T10:35:48;26.93;;;17.80;;
41903;SDS011;27586;51.124;4.182;2024-01-11T10:38:15;28.63;;;17.90;;
41903;SDS011;27586;51.124;4.182;2024-01-11T10:40:41;24.63;;;16.37;;
41903;SDS011;27586;51.124;4.182;2024-01-11T10:43:11;25.70;;;17.60;;
41903;SDS011;27586;51.124;4.182;2024-01-11T10:45:38;30.70;;;19.13;;
41903;SDS011;27586;51.124;4.182;2024-01-11T10:48:06;26.27;;;17.77;;
41903;SDS011;27586;51.124;4.182;2024-01-11T10:50:37;30.83;;;18.60;;
41903;SDS011;27586;51.124;4.182;2024-01-11T10:55:33;28.07;;;18.53;;
41903;SDS011;27586;51.124;4.182;2024-01-11T10:58:00;28.70;;;19.33;;
41903;SDS011;27586;51.124;4.182;2024-01-11T11:00:28;26.10;;;17.97;;
41903;SDS011;27586;51.124;4.182;2024-01-11T11:02:55;26.30;;;18.27;;
41903;SDS011;27586;51.124;4.182;2024-01-11T11:05:21;29.20;;;18.13;;
41903;SDS011;27586;51.124;4.182;2024-01-11T11:07:50;28.40;;;18.13;;
41903;SDS011;27586;51.124;4.182;2024-01-11T11:10:19;26.63;;;17.40;;
41903;SDS011;27586;51.124;4.182;2024-01-11T11:12:46;30.73;;;19.13;;
41903;SDS011;27586;51.124;4.182;2024-01-11T11:15:13;28.43;;;18.20;;
41903;SDS011;27586;51.124;4.182;2024-01-11T11:17:40;26.73;;;17.97;;
41903;SDS011;27586;51.124;4.182;2024-01-11T11:20:10;25.67;;;16.90;;
41903;SDS011;27586;51.124;4.182;2024-01-11T11:22:37;27.13;;;17.73;;
41903;SDS011;27586;51.124;4.182;2024-01-11T11:25:11;35.20;;;24.43;;
41903;SDS011;27586;51.124;4.182;2024-01-11T11:27:49;60.07;;;36.43;;
41903;SDS011;27586;51.124;4.182;2024-01-11T11:30:14;35.00;;;23.00;;
41903;SDS011;27586;51.124;4.182;2024-01-11T11:32:45;34.43;;;22.57;;
41903;SDS011;27586;51.124;4.182;2024-01-11T11:35:11;35.30;;;22.27;;
41903;SDS011;27586;51.124;4.182;2024-01-11T11:37:37;33.57;;;21.73;;
41903;SDS011;27586;51.124;4.182;2024-01-11T11:40:13;32.83;;;21.27;;
41903;SDS011;27586;51.124;4.182;2024-01-11T11:42:39;32.07;;;20.30;;
41903;SDS011;27586;51.124;4.182;2024-01-11T11:45:05;28.87;;;19.43;;
41903;SDS011;27586;51.124;4.182;2024-01-11T11:47:35;29.73;;;20.27;;
41903;SDS011;27586;51.124;4.182;2024-01-11T11:50:05;31.43;;;20.60;;
41903;SDS011;27586;51.124;4.182;2024-01-11T11:52:34;28.73;;;19.07;;
41903;SDS011;27586;51.124;4.182;2024-01-11T11:55:07;29.27;;;18.83;;
41903;SDS011;27586;51.124;4.182;2024-01-11T11:57:34;32.97;;;19.73;;
41903;SDS011;27586;51.124;4.182;2024-01-11T12:00:00;28.33;;;20.10;;
41903;SDS011;27586;51.124;4.182;2024-01-11T12:02:31;28.07;;;18.73;;
41903;SDS011;27586;51.124;4.182;2024-01-11T12:04:57;26.03;;;17.23;;
41903;SDS011;27586;51.124;4.182;2024-01-11T12:07:24;26.97;;;17.70;;
41903;SDS011;27586;51.124;4.182;2024-01-11T12:09:50;25.33;;;17.57;;
41903;SDS011;27586;51.124;4.182;2024-01-11T12:12:17;26.80;;;18.17;;
41903;SDS011;27586;51.124;4.182;2024-01-11T12:14:45;28.97;;;18.87;;
41903;SDS011;27586;51.124;4.182;2024-01-11T12:17:12;28.83;;;19.23;;
41903;SDS011;27586;51.124;4.182;2024-01-11T12:19:38;28.47;;;19.97;;
41903;SDS011;27586;51.124;4.182;2024-01-11T12:22:03;31.23;;;18.47;;
41903;SDS011;27586;51.124;4.182;2024-01-11T12:24:29;30.27;;;19.17;;
41903;SDS011;27586;51.124;4.182;2024-01-11T12:26:56;25.27;;;17.93;;
41903;SDS011;27586;51.124;4.182;2024-01-11T12:29:25;29.57;;;19.70;;
41903;SDS011;27586;51.124;4.182;2024-01-11T12:31:53;26.13;;;18.77;;
41903;SDS011;27586;51.124;4.182;2024-01-11T12:34:19;28.73;;;18.30;;
41903;SDS011;27586;51.124;4.182;2024-01-11T12:36:44;28.77;;;19.93;;
41903;SDS011;27586;51.124;4.182;2024-01-11T12:39:10;28.47;;;20.07;;
41903;SDS011;27586;51.124;4.182;2024-01-11T12:41:38;30.63;;;18.97;;
41903;SDS011;27586;51.124;4.182;2024-01-11T12:44:04;25.50;;;18.53;;
41903;SDS011;27586;51.124;4.182;2024-01-11T12:46:31;27.57;;;18.37;;
41903;SDS011;27586;51.124;4.182;2024-01-11T12:48:57;30.40;;;18.83;;
41903;SDS011;27586;51.124;4.182;2024-01-11T12:51:23;26.80;;;17.70;;
41903;SDS011;27586;51.124;4.182;2024-01-11T12:53:51;28.00;;;18.00;;
41903;SDS011;27586;51.124;4.182;2024-01-11T12:56:18;24.47;;;15.30;;
41903;SDS011;27586;51.124;4.182;2024-01-11T12:58:46;25.57;;;16.33;;
41903;SDS011;27586;51.124;4.182;2024-01-11T13:01:12;27.70;;;17.03;;
41903;SDS011;27586;51.124;4.182;2024-01-11T13:03:39;22.83;;;17.70;;
41903;SDS011;27586;51.124;4.182;2024-01-11T13:06:10;22.57;;;16.00;;
41903;SDS011;27586;51.124;4.182;2024-01-11T13:08:37;25.20;;;17.53;;
41903;SDS011;27586;51.124;4.182;2024-01-11T13:11:06;31.93;;;19.97;;
41903;SDS011;27586;51.124;4.182;2024-01-11T13:13:35;39.43;;;27.17;;
41903;SDS011;27586;51.124;4.182;2024-01-11T13:16:02;21.67;;;14.90;;
41903;SDS011;27586;51.124;4.182;2024-01-11T13:18:39;24.80;;;15.93;;
41903;SDS011;27586;51.124;4.182;2024-01-11T13:21:05;25.23;;;15.93;;
41903;SDS011;27586;51.124;4.182;2024-01-11T13:23:34;22.47;;;15.27;;
41903;SDS011;27586;51.124;4.182;2024-01-11T13:26:02;18.77;;;13.50;;
41903;SDS011;27586;51.124;4.182;2024-01-11T13:28:29;19.93;;;14.70;;
41903;SDS011;27586;51.124;4.182;2024-01-11T13:30:55;21.60;;;14.93;;
41903;SDS011;27586;51.124;4.182;2024-01-11T13:33:21;18.33;;;13.40;;
41903;SDS011;27586;51.124;4.182;2024-01-11T13:35:48;18.10;;;13.47;;
41903;SDS011;27586;51.124;4.182;2024-01-11T13:38:14;22.77;;;13.60;;
41903;SDS011;27586;51.124;4.182;2024-01-11T13:40:40;19.17;;;13.93;;
41903;SDS011;27586;51.124;4.182;2024-01-11T13:43:08;18.93;;;13.47;;
41903;SDS011;27586;51.124;4.182;2024-01-11T13:45:34;22.67;;;14.10;;
41903;SDS011;27586;51.124;4.182;2024-01-11T13:48:04;22.50;;;14.77;;
41903;SDS011;27586;51.124;4.182;2024-01-11T13:50:30;22.87;;;14.70;;
41903;SDS011;27586;51.124;4.182;2024-01-11T13:52:57;23.30;;;15.63;;
41903;SDS011;27586;51.124;4.182;2024-01-11T13:55:23;20.03;;;14.23;;
41903;SDS011;27586;51.124;4.182;2024-01-11T13:57:51;21.63;;;14.37;;
41903;SDS011;27586;51.124;4.182;2024-01-11T14:00:18;21.80;;;16.00;;
41903;SDS011;27586;51.124;4.182;2024-01-11T14:02:45;25.43;;;16.27;;
41903;SDS011;27586;51.124;4.182;2024-01-11T14:05:11;21.90;;;15.70;;
41903;SDS011;27586;51.124;4.182;2024-01-11T14:07:40;24.03;;;16.63;;
41903;SDS011;27586;51.124;4.182;2024-01-11T14:10:06;23.80;;;17.10;;
41903;SDS011;27586;51.124;4.182;2024-01-11T14:12:42;23.73;;;17.40;;
41903;SDS011;27586;51.124;4.182;2024-01-11T14:15:08;23.67;;;16.23;;
41903;SDS011;27586;51.124;4.182;2024-01-11T14:17:38;24.87;;;16.27;;
41903;SDS011;27586;51.124;4.182;2024-01-11T14:20:04;24.07;;;16.10;;
41903;SDS011;27586;51.124;4.182;2024-01-11T14:22:36;22.70;;;15.90;;